createdAt,value
2023-03-29T00:00:44.901Z,534.32
2023-03-29T00:01:44.917Z,539.07
2023-03-29T00:02:45.018Z,538.20
2023-03-29T00:03:44.875Z,539.07
2023-03-29T00:04:45.054Z,534.32
2023-03-29T00:05:44.868Z,534.32
2023-03-29T00:06:44.805Z,537.34
2023-03-29T00:07:44.816Z,539.07
2023-03-29T00:08:44.794Z,536.47
2023-03-29T00:09:44.777Z,543.02
2023-03-29T00:10:44.814Z,537.34
2023-03-29T00:11:44.785Z,538.20
2023-03-29T00:12:44.738Z,538.20
2023-03-29T00:13:44.729Z,539.51
2023-03-29T00:14:44.737Z,541.70
2023-03-29T00:15:44.704Z,540.38
2023-03-29T00:16:44.825Z,538.20
2023-03-29T00:17:44.726Z,537.34
2023-03-29T00:18:44.676Z,539.51
2023-03-29T00:19:44.669Z,538.20
2023-03-29T00:20:44.691Z,536.47
2023-03-29T00:21:44.649Z,536.90
2023-03-29T00:22:44.612Z,536.90
2023-03-29T00:23:44.623Z,533.89
2023-03-29T00:24:44.597Z,533.04
2023-03-29T00:25:44.584Z,537.77
2023-03-29T00:26:44.589Z,538.64
2023-03-29T00:27:44.574Z,538.64
2023-03-29T00:28:44.574Z,535.18
2023-03-29T00:29:44.542Z,533.89
2023-03-29T00:30:44.568Z,533.47
2023-03-29T00:31:44.594Z,536.04
2023-03-29T00:32:44.543Z,537.77
2023-03-29T00:33:44.499Z,533.89
2023-03-29T00:34:44.481Z,534.75
2023-03-29T00:35:44.523Z,535.61
2023-03-29T00:36:44.497Z,534.75
2023-03-29T00:37:44.462Z,533.04
2023-03-29T00:38:44.475Z,533.89
2023-03-29T00:39:44.444Z,533.04
2023-03-29T00:40:44.416Z,533.04
2023-03-29T00:41:44.417Z,537.77
2023-03-29T00:42:44.413Z,541.26
2023-03-29T00:43:44.456Z,534.32
2023-03-29T00:44:44.383Z,533.89
2023-03-29T00:45:44.386Z,537.77
2023-03-29T00:46:44.390Z,535.18
2023-03-29T00:47:44.361Z,536.04
2023-03-29T00:48:44.362Z,536.47
2023-03-29T00:49:44.364Z,534.32
2023-03-29T00:50:44.302Z,536.47
2023-03-29T00:51:44.338Z,536.47
2023-03-29T00:52:44.282Z,538.64
2023-03-29T00:53:44.297Z,535.61
2023-03-29T00:54:44.309Z,537.34
2023-03-29T00:55:44.286Z,535.18
2023-03-29T00:56:44.280Z,535.18
2023-03-29T00:57:44.236Z,532.61
2023-03-29T00:58:44.231Z,534.32
2023-03-29T00:59:44.242Z,532.61
2023-03-29T01:00:44.216Z,530.49
2023-03-29T01:01:44.290Z,530.49
2023-03-29T01:02:44.243Z,527.14
2023-03-29T01:03:44.218Z,527.56
2023-03-29T01:04:44.167Z,526.72
2023-03-29T01:05:44.172Z,525.89
2023-03-29T01:06:44.182Z,527.14
2023-03-29T01:07:44.135Z,522.19
2023-03-29T01:08:44.165Z,526.31
2023-03-29T01:09:44.118Z,523.01
2023-03-29T01:10:44.116Z,524.24
2023-03-29T01:11:44.115Z,520.96
2023-03-29T01:12:44.084Z,520.15
2023-03-29T01:13:44.055Z,524.65
2023-03-29T01:14:44.083Z,521.37
2023-03-29T01:15:44.046Z,519.34
2023-03-29T01:16:44.094Z,524.65
2023-03-29T01:17:44.084Z,525.07
2023-03-29T01:18:44.020Z,526.72
2023-03-29T01:19:44.012Z,521.78
2023-03-29T01:20:44.003Z,523.01
2023-03-29T01:21:43.984Z,524.65
2023-03-29T01:22:43.999Z,521.78
2023-03-29T01:23:43.985Z,522.60
2023-03-29T01:24:43.955Z,523.01
2023-03-29T01:25:43.926Z,520.56
2023-03-29T01:26:43.926Z,518.94
2023-03-29T01:27:43.952Z,522.60
2023-03-29T01:28:43.900Z,519.74
2023-03-29T01:29:43.886Z,520.96
2023-03-29T01:30:43.868Z,519.74
2023-03-29T01:31:43.921Z,520.15
2023-03-29T01:32:43.995Z,519.34
2023-03-29T01:33:43.887Z,518.53
2023-03-29T01:34:43.842Z,520.56
2023-03-29T01:35:43.958Z,524.24
2023-03-29T01:36:43.826Z,519.34
2023-03-29T01:37:43.811Z,519.34
2023-03-29T01:38:43.801Z,519.34
2023-03-29T01:39:43.804Z,520.15
2023-03-29T01:40:43.768Z,522.19
2023-03-29T01:41:43.783Z,521.78
2023-03-29T01:42:43.790Z,517.73
2023-03-29T01:43:43.759Z,518.94
2023-03-29T01:44:43.761Z,520.96
2023-03-29T01:45:43.744Z,524.24
2023-03-29T01:46:43.754Z,523.83
2023-03-29T01:47:43.710Z,520.56
2023-03-29T01:48:43.748Z,525.48
2023-03-29T01:49:43.676Z,521.37
2023-03-29T01:50:43.678Z,523.42
2023-03-29T01:51:43.711Z,524.24
2023-03-29T01:52:43.659Z,525.07
2023-03-29T01:53:43.675Z,523.83
2023-03-29T01:54:43.636Z,525.48
2023-03-29T01:55:43.609Z,527.14
2023-03-29T01:56:43.653Z,523.42
2023-03-29T01:57:43.623Z,520.96
2023-03-29T01:58:43.585Z,522.60
2023-03-29T01:59:43.563Z,525.48
2023-03-29T02:00:43.597Z,522.60
2023-03-29T02:01:43.557Z,525.48
2023-03-29T02:02:43.601Z,517.33
2023-03-29T02:03:43.585Z,521.78
2023-03-29T02:04:43.570Z,515.72
2023-03-29T02:05:43.493Z,516.52
2023-03-29T02:06:43.506Z,517.33
2023-03-29T02:07:43.499Z,516.52
2023-03-29T02:08:43.493Z,518.94
2023-03-29T02:09:43.469Z,521.78
2023-03-29T02:10:43.469Z,518.53
2023-03-29T02:11:43.434Z,517.33
2023-03-29T02:12:43.430Z,518.13
2023-03-29T02:13:43.444Z,515.72
2023-03-29T02:14:43.434Z,521.78
2023-03-29T02:15:43.465Z,521.78
2023-03-29T02:16:43.382Z,520.56
2023-03-29T02:17:43.386Z,519.74
2023-03-29T02:18:43.405Z,517.33
2023-03-29T02:19:43.424Z,519.74
2023-03-29T02:20:43.362Z,519.34
2023-03-29T02:21:43.363Z,521.37
2023-03-29T02:22:43.323Z,523.01
2023-03-29T02:23:43.309Z,524.65
2023-03-29T02:24:43.383Z,523.01
2023-03-29T02:25:43.328Z,520.96
2023-03-29T02:26:43.305Z,520.56
2023-03-29T02:27:43.278Z,525.07
2023-03-29T02:28:43.283Z,518.94
2023-03-29T02:29:43.253Z,520.96
2023-03-29T02:30:43.240Z,523.01
2023-03-29T02:31:43.286Z,527.14
2023-03-29T02:32:43.203Z,522.60
2023-03-29T02:33:43.196Z,524.65
2023-03-29T02:34:43.221Z,522.19
2023-03-29T02:35:43.207Z,520.15
2023-03-29T02:36:43.144Z,518.94
2023-03-29T02:37:43.167Z,520.96
2023-03-29T02:38:43.135Z,517.73
2023-03-29T02:39:43.127Z,522.19
2023-03-29T02:40:43.132Z,520.96
2023-03-29T02:41:43.105Z,521.37
2023-03-29T02:42:43.160Z,522.19
2023-03-29T02:43:43.075Z,519.34
2023-03-29T02:44:43.065Z,518.94
2023-03-29T02:45:43.054Z,523.42
2023-03-29T02:46:43.171Z,519.74
2023-03-29T02:47:43.084Z,520.96
2023-03-29T02:48:43.032Z,520.56
2023-03-29T02:49:43.017Z,520.56
2023-03-29T02:50:42.998Z,520.96
2023-03-29T02:51:43.003Z,517.73
2023-03-29T02:52:43.001Z,518.13
2023-03-29T02:53:42.993Z,519.74
2023-03-29T02:54:42.956Z,516.92
2023-03-29T02:55:42.981Z,517.73
2023-03-29T02:56:42.981Z,514.93
2023-03-29T02:57:42.982Z,512.95
2023-03-29T02:58:42.939Z,516.92
2023-03-29T02:59:43.013Z,518.53
2023-03-29T03:00:43.056Z,512.55
2023-03-29T03:01:42.951Z,515.72
2023-03-29T03:02:42.981Z,513.74
2023-03-29T03:03:42.998Z,509.42
2023-03-29T03:04:42.889Z,508.64
2023-03-29T03:05:42.857Z,509.03
2023-03-29T03:06:42.827Z,504.79
2023-03-29T03:07:42.856Z,505.18
2023-03-29T03:08:42.865Z,503.65
2023-03-29T03:09:42.802Z,501.76
2023-03-29T03:10:42.814Z,503.65
2023-03-29T03:11:42.772Z,498.38
2023-03-29T03:12:42.776Z,498.75
2023-03-29T03:13:42.778Z,498.75
2023-03-29T03:14:42.754Z,496.52
2023-03-29T03:15:42.851Z,492.86
2023-03-29T03:16:42.862Z,496.15
2023-03-29T03:17:42.808Z,495.05
2023-03-29T03:18:42.715Z,492.86
2023-03-29T03:19:42.701Z,492.86
2023-03-29T03:20:42.717Z,493.22
2023-03-29T03:21:42.700Z,492.86
2023-03-29T03:22:42.708Z,495.79
2023-03-29T03:23:42.706Z,495.42
2023-03-29T03:24:42.623Z,493.95
2023-03-29T03:25:42.636Z,495.79
2023-03-29T03:26:42.623Z,495.79
2023-03-29T03:27:42.635Z,495.79
2023-03-29T03:28:42.598Z,493.58
2023-03-29T03:29:42.579Z,494.32
2023-03-29T03:30:42.572Z,496.52
2023-03-29T03:31:42.586Z,496.52
2023-03-29T03:32:42.637Z,501.76
2023-03-29T03:33:42.577Z,499.87
2023-03-29T03:34:42.524Z,496.15
2023-03-29T03:35:42.667Z,499.50
2023-03-29T03:36:42.499Z,499.50
2023-03-29T03:37:42.509Z,497.64
2023-03-29T03:38:42.511Z,496.15
2023-03-29T03:39:42.512Z,494.32
2023-03-29T03:40:42.475Z,494.68
2023-03-29T03:41:42.498Z,492.86
2023-03-29T03:42:42.448Z,494.32
2023-03-29T03:43:42.488Z,491.40
2023-03-29T03:44:42.431Z,486.38
2023-03-29T03:45:42.577Z,483.56
2023-03-29T03:46:42.445Z,482.86
2023-03-29T03:47:42.535Z,481.12
2023-03-29T03:48:42.460Z,476.99
2023-03-29T03:49:42.408Z,476.65
2023-03-29T03:50:42.397Z,472.93
2023-03-29T03:51:42.430Z,473.94
2023-03-29T03:52:42.414Z,475.97
2023-03-29T03:53:42.410Z,473.94
2023-03-29T03:54:42.346Z,473.27
2023-03-29T03:55:42.569Z,467.95
2023-03-29T03:56:42.378Z,471.26
2023-03-29T03:57:42.328Z,471.59
2023-03-29T03:58:42.402Z,467.62
2023-03-29T03:59:42.301Z,468.61
2023-03-29T04:00:42.341Z,470.93
2023-03-29T04:01:42.424Z,470.60
2023-03-29T04:02:42.399Z,470.60
2023-03-29T04:03:42.381Z,471.26
2023-03-29T04:04:42.300Z,470.93
2023-03-29T04:05:42.366Z,470.93
2023-03-29T04:06:43.761Z,474.28
2023-03-29T04:07:42.367Z,472.93
2023-03-29T04:08:42.259Z,470.26
2023-03-29T04:09:42.239Z,473.94
2023-03-29T04:10:42.187Z,474.95
2023-03-29T04:11:42.209Z,474.28
2023-03-29T04:12:42.229Z,472.60
2023-03-29T04:13:42.167Z,470.26
2023-03-29T04:14:42.200Z,469.60
2023-03-29T04:15:42.159Z,471.59
2023-03-29T04:16:42.270Z,468.61
2023-03-29T04:17:42.155Z,468.28
2023-03-29T04:18:42.359Z,467.30
2023-03-29T04:19:42.177Z,469.27
2023-03-29T04:20:42.313Z,469.27
2023-03-29T04:21:42.072Z,468.61
2023-03-29T04:22:42.047Z,466.97
2023-03-29T04:23:42.085Z,467.30
2023-03-29T04:24:42.156Z,470.60
2023-03-29T04:27:14.123Z,512.55
2023-03-29T04:28:14.115Z,503.27
2023-03-29T04:29:13.969Z,498.01
2023-03-29T04:30:14.180Z,489.96
2023-03-29T04:31:13.877Z,482.86
2023-03-29T04:32:21.822Z,480.77
2023-03-29T04:33:14.352Z,475.63
2023-03-29T04:34:14.250Z,477.67
2023-03-29T04:35:14.044Z,473.27
2023-03-29T04:36:14.073Z,475.63
2023-03-29T04:37:14.110Z,471.26
2023-03-29T04:38:13.934Z,472.93
2023-03-29T04:39:13.849Z,470.60
2023-03-29T04:40:13.803Z,469.27
2023-03-29T04:41:13.768Z,465.99
2023-03-29T04:42:13.712Z,468.94
2023-03-29T04:43:13.766Z,467.95
2023-03-29T04:44:13.726Z,465.02
2023-03-29T04:45:13.804Z,465.99
2023-03-29T04:46:13.702Z,465.02
2023-03-29T04:47:13.695Z,465.34
2023-03-29T04:48:13.706Z,463.08
2023-03-29T04:49:13.656Z,465.34
2023-03-29T04:50:13.684Z,461.80
2023-03-29T04:51:13.626Z,461.16
2023-03-29T04:52:13.680Z,464.05
2023-03-29T04:53:13.629Z,464.05
2023-03-29T04:54:13.647Z,464.69
2023-03-29T04:55:13.646Z,464.69
2023-03-29T04:56:13.582Z,461.48
2023-03-29T04:57:13.641Z,460.52
2023-03-29T04:58:13.757Z,461.80
2023-03-29T04:59:13.565Z,459.25
2023-03-29T05:00:13.542Z,460.20
2023-03-29T05:01:13.567Z,460.52
2023-03-29T05:02:13.533Z,460.84
2023-03-29T05:03:13.522Z,456.73
2023-03-29T05:04:13.553Z,456.73
2023-03-29T05:05:14.289Z,454.55
2023-03-29T05:06:13.638Z,455.18
2023-03-29T05:07:13.673Z,455.49
2023-03-29T05:08:13.536Z,453.32
2023-03-29T05:09:13.580Z,453.32
2023-03-29T05:10:13.565Z,454.86
2023-03-29T05:11:13.537Z,451.48
2023-03-29T05:12:13.785Z,453.32
2023-03-29T05:13:13.421Z,453.94
2023-03-29T05:14:13.442Z,453.32
2023-03-29T05:15:13.600Z,452.09
2023-03-29T05:16:13.461Z,451.78
2023-03-29T05:19:40.798Z,499.50
2023-03-29T05:22:19.015Z,520.96
2023-03-29T05:23:18.785Z,506.33
2023-03-29T05:24:19.206Z,492.13
2023-03-29T05:25:18.875Z,484.27
2023-03-29T05:26:18.840Z,481.47
2023-03-29T05:27:18.904Z,471.26
2023-03-29T05:28:18.868Z,470.26
2023-03-29T05:29:18.908Z,464.69
2023-03-29T05:30:19.059Z,465.67
2023-03-29T05:31:18.712Z,459.57
2023-03-29T05:32:18.833Z,458.30
2023-03-29T05:33:18.677Z,459.88
2023-03-29T05:34:18.717Z,453.63
2023-03-29T05:35:18.750Z,454.86
2023-03-29T05:36:18.656Z,454.25
2023-03-29T05:37:18.693Z,449.05
2023-03-29T05:38:18.601Z,449.35
2023-03-29T05:39:18.662Z,452.40
2023-03-29T05:40:18.633Z,448.74
2023-03-29T05:41:18.599Z,450.26
2023-03-29T05:42:18.709Z,446.94
2023-03-29T05:43:18.563Z,446.94
2023-03-29T05:44:18.592Z,445.15
2023-03-29T05:45:18.603Z,446.64
2023-03-29T05:46:18.573Z,445.45
2023-03-29T05:47:18.537Z,443.08
2023-03-29T05:48:18.539Z,444.55
2023-03-29T05:49:18.539Z,444.55
2023-03-29T05:50:18.494Z,443.37
2023-03-29T05:51:18.465Z,444.85
2023-03-29T05:52:18.586Z,443.67
2023-03-29T05:53:18.564Z,440.15
2023-03-29T05:54:18.446Z,441.90
2023-03-29T05:55:18.537Z,443.37
2023-03-29T05:56:18.502Z,443.08
2023-03-29T05:57:18.607Z,443.37
2023-03-29T05:58:18.484Z,441.32
2023-03-29T05:59:18.388Z,443.08
2023-03-29T06:00:18.411Z,437.84
2023-03-29T06:01:18.362Z,437.55
2023-03-29T06:02:18.569Z,438.42
2023-03-29T06:03:21.362Z,438.13
2023-03-29T06:04:18.469Z,434.70
2023-03-29T06:05:18.356Z,436.98
2023-03-29T06:06:18.365Z,433.29
2023-03-29T06:07:18.372Z,434.98
2023-03-29T06:08:18.314Z,434.98
2023-03-29T06:09:18.379Z,431.33
2023-03-29T06:10:18.290Z,433.01
2023-03-29T06:11:18.280Z,432.17
2023-03-29T06:12:18.264Z,432.17
2023-03-29T06:13:18.235Z,433.29
2023-03-29T06:14:18.259Z,433.01
2023-03-29T06:15:18.328Z,432.17
2023-03-29T06:16:18.251Z,429.11
2023-03-29T06:17:18.360Z,426.64
2023-03-29T06:18:18.211Z,428.55
2023-03-29T06:19:18.197Z,429.11
2023-03-29T06:20:18.167Z,427.46
2023-03-29T06:21:18.230Z,427.18
2023-03-29T06:22:18.335Z,426.09
2023-03-29T06:23:18.162Z,426.64
2023-03-29T06:24:18.200Z,427.73
2023-03-29T06:25:18.121Z,426.91
2023-03-29T06:26:18.122Z,424.73
2023-03-29T06:27:18.089Z,425.01
2023-03-29T06:28:18.765Z,425.55
2023-03-29T06:29:18.186Z,425.01
2023-03-29T06:30:18.088Z,425.01
2023-03-29T06:31:18.158Z,422.58
2023-03-29T06:32:18.124Z,424.46
2023-03-29T06:33:18.080Z,424.19
2023-03-29T06:34:18.019Z,423.92
2023-03-29T06:35:18.149Z,423.92
2023-03-29T06:36:18.108Z,420.98
2023-03-29T06:37:18.065Z,420.71
2023-03-29T06:38:18.020Z,419.39
2023-03-29T06:39:17.972Z,420.71
2023-03-29T06:40:18.094Z,418.60
2023-03-29T06:41:18.732Z,420.71
2023-03-29T06:42:21.570Z,420.18
2023-03-29T06:43:17.999Z,418.08
2023-03-29T06:44:17.901Z,419.39
2023-03-29T06:45:17.898Z,420.98
2023-03-29T06:46:17.946Z,419.92
2023-03-29T06:47:17.854Z,419.65
2023-03-29T06:48:18.007Z,417.82
2023-03-29T06:49:17.828Z,419.65
2023-03-29T06:50:18.141Z,421.78
2023-03-29T06:51:17.826Z,420.71
2023-03-29T06:52:17.867Z,422.31
2023-03-29T06:53:17.769Z,422.31
2023-03-29T06:54:17.772Z,419.92
2023-03-29T06:55:17.797Z,421.25
2023-03-29T06:56:17.822Z,420.45
2023-03-29T06:57:17.892Z,422.05
2023-03-29T06:58:17.747Z,419.92
2023-03-29T06:59:17.788Z,420.98
2023-03-29T07:00:17.762Z,422.05
2023-03-29T07:01:17.832Z,422.85
2023-03-29T07:02:17.730Z,423.39
2023-03-29T07:03:17.747Z,419.13
2023-03-29T07:04:18.194Z,419.65
2023-03-29T07:05:17.745Z,419.92
2023-03-29T07:06:17.671Z,419.92
2023-03-29T07:07:17.668Z,423.92
2023-03-29T07:08:17.709Z,423.65
2023-03-29T07:09:19.428Z,422.31
2023-03-29T07:10:17.665Z,420.18
2023-03-29T07:11:17.668Z,419.39
2023-03-29T07:12:17.595Z,419.13
2023-03-29T07:13:17.627Z,418.08
2023-03-29T07:14:17.562Z,421.51
2023-03-29T07:15:17.641Z,420.45
2023-03-29T07:16:17.627Z,421.78
2023-03-29T07:17:18.343Z,422.31
2023-03-29T07:18:17.550Z,422.31
2023-03-29T07:19:17.612Z,420.71
2023-03-29T07:20:17.594Z,424.73
2023-03-29T07:21:17.803Z,421.25
2023-03-29T07:22:17.558Z,423.12
2023-03-29T07:23:17.568Z,423.39
2023-03-29T07:24:17.600Z,424.19
2023-03-29T07:25:17.568Z,424.46
2023-03-29T07:26:28.742Z,423.39
2023-03-29T07:27:18.408Z,422.05
2023-03-29T07:28:17.528Z,423.39
2023-03-29T07:29:17.444Z,423.65
2023-03-29T07:30:17.420Z,422.31
2023-03-29T07:31:17.558Z,420.98
2023-03-29T07:32:17.465Z,425.82
2023-03-29T07:33:17.515Z,423.12
2023-03-29T07:34:17.389Z,420.98
2023-03-29T07:35:17.414Z,418.08
2023-03-29T07:36:17.387Z,420.18
2023-03-29T07:37:17.357Z,421.51
2023-03-29T07:38:17.354Z,420.98
2023-03-29T07:39:17.390Z,423.12
2023-03-29T07:40:17.332Z,420.98
2023-03-29T07:41:17.377Z,419.92
2023-03-29T07:42:17.364Z,419.39
2023-03-29T07:43:17.281Z,419.13
2023-03-29T07:44:17.293Z,419.39
2023-03-29T07:45:17.347Z,420.18
2023-03-29T07:46:17.424Z,415.73
2023-03-29T07:47:17.249Z,415.47
2023-03-29T07:48:17.264Z,419.39
2023-03-29T07:49:17.198Z,415.47
2023-03-29T07:50:17.340Z,418.86
2023-03-29T07:51:17.189Z,416.77
2023-03-29T07:52:17.242Z,416.51
2023-03-29T07:53:17.225Z,416.77
2023-03-29T07:54:17.155Z,416.77
2023-03-29T07:55:17.222Z,415.47
2023-03-29T07:56:17.122Z,413.15
2023-03-29T07:57:17.193Z,412.64
2023-03-29T07:58:17.127Z,411.12
2023-03-29T07:59:17.115Z,413.15
2023-03-29T08:00:17.309Z,410.11
2023-03-29T08:01:19.448Z,411.88
2023-03-29T08:02:17.215Z,411.37
2023-03-29T08:03:17.162Z,412.39
2023-03-29T08:04:17.160Z,415.73
2023-03-29T08:05:23.283Z,412.13
2023-03-29T08:06:18.046Z,414.44
2023-03-29T08:07:18.886Z,412.39
2023-03-29T08:08:17.079Z,417.03
2023-03-29T08:09:17.068Z,412.13
2023-03-29T08:10:17.006Z,413.15
2023-03-29T08:11:17.012Z,413.15
2023-03-29T08:12:17.015Z,413.67
2023-03-29T08:13:16.949Z,412.90
2023-03-29T08:14:16.979Z,413.92
2023-03-29T08:15:17.026Z,416.25
2023-03-29T08:16:16.982Z,414.70
2023-03-29T08:17:17.008Z,414.70
2023-03-29T08:18:17.092Z,412.39
2023-03-29T08:19:16.850Z,412.90
2023-03-29T08:20:16.998Z,411.62
2023-03-29T08:21:16.896Z,411.88
2023-03-29T08:22:17.088Z,413.41
2023-03-29T08:23:16.976Z,411.37
2023-03-29T08:24:18.575Z,413.92
2023-03-29T08:25:16.910Z,412.90
2023-03-29T08:26:16.915Z,413.41
2023-03-29T08:27:16.798Z,410.86
2023-03-29T08:28:16.873Z,412.90
2023-03-29T08:29:16.907Z,411.37
2023-03-29T08:30:16.894Z,413.92
2023-03-29T08:31:16.910Z,410.61
2023-03-29T08:32:16.822Z,412.13
2023-03-29T08:33:16.977Z,412.64
2023-03-29T08:34:16.784Z,412.90
2023-03-29T08:35:16.781Z,412.13
2023-03-29T08:36:16.795Z,412.13
2023-03-29T08:37:16.760Z,411.37
2023-03-29T08:38:16.705Z,412.13
2023-03-29T08:39:17.831Z,408.85
2023-03-29T08:40:16.794Z,411.37
2023-03-29T08:41:16.785Z,410.61
2023-03-29T08:42:16.732Z,409.35
2023-03-29T08:43:16.734Z,411.62
2023-03-29T08:44:16.644Z,408.35
2023-03-29T08:45:16.751Z,409.10
2023-03-29T08:46:16.647Z,405.86
2023-03-29T08:47:16.599Z,402.92
2023-03-29T08:48:16.632Z,405.86
2023-03-29T08:49:16.583Z,404.39
2023-03-29T08:50:16.642Z,404.14
2023-03-29T08:51:16.552Z,404.88
2023-03-29T08:52:16.568Z,404.63
2023-03-29T08:53:16.548Z,412.39
2023-03-29T08:54:16.558Z,404.88
2023-03-29T08:55:16.502Z,404.63
2023-03-29T08:56:16.515Z,401.95
2023-03-29T08:57:16.532Z,402.92
2023-03-29T08:58:16.587Z,403.90
2023-03-29T08:59:16.480Z,404.88
2023-03-29T09:00:16.526Z,405.12
2023-03-29T09:01:16.482Z,405.37
2023-03-29T09:02:16.553Z,403.90
2023-03-29T09:03:16.478Z,403.41
2023-03-29T09:04:16.581Z,406.85
2023-03-29T09:05:16.391Z,406.36
2023-03-29T09:06:16.380Z,414.95
2023-03-29T09:07:16.382Z,406.61
2023-03-29T09:08:16.389Z,412.13
2023-03-29T09:09:16.366Z,408.35
2023-03-29T09:10:16.399Z,411.37
2023-03-29T09:11:16.352Z,413.92
2023-03-29T09:12:16.322Z,410.61
2023-03-29T09:13:16.372Z,410.86
2023-03-29T09:14:16.381Z,414.70
2023-03-29T09:15:16.281Z,417.03
2023-03-29T09:16:16.363Z,406.85
2023-03-29T09:17:16.259Z,414.44
2023-03-29T09:18:16.331Z,415.99
2023-03-29T09:19:16.259Z,417.03
2023-03-29T09:20:16.325Z,409.10
2023-03-29T09:21:16.262Z,410.11
2023-03-29T09:22:16.274Z,418.60
2023-03-29T09:23:16.188Z,422.85
2023-03-29T09:24:16.194Z,415.99
2023-03-29T09:25:16.219Z,422.31
2023-03-29T09:26:16.214Z,420.45
2023-03-29T09:27:16.134Z,418.08
2023-03-29T09:28:16.170Z,423.92
2023-03-29T09:29:16.120Z,428.83
2023-03-29T09:30:16.154Z,426.09
2023-03-29T09:31:16.177Z,422.05
2023-03-29T09:32:16.151Z,429.38
2023-03-29T09:33:16.081Z,429.11
2023-03-29T09:34:16.127Z,423.12
2023-03-29T09:35:16.131Z,426.64
2023-03-29T09:36:16.107Z,433.85
2023-03-29T09:37:16.174Z,429.94
2023-03-29T09:38:16.102Z,427.18
2023-03-29T09:39:16.012Z,430.77
2023-03-29T09:40:16.012Z,432.73
2023-03-29T09:41:16.029Z,432.17
2023-03-29T09:42:16.069Z,430.49
2023-03-29T09:43:15.974Z,436.12
2023-03-29T09:45:16.314Z,434.70
2023-03-29T09:46:16.404Z,433.01
2023-03-29T09:47:16.495Z,434.14
2023-03-29T09:48:16.005Z,434.42
2023-03-29T09:49:17.334Z,437.27
2023-03-29T09:50:29.561Z,435.84
2023-03-29T09:51:17.046Z,433.29
2023-03-29T09:52:15.952Z,434.42
2023-03-29T09:53:15.873Z,429.94
2023-03-29T09:54:15.882Z,432.17
2023-03-29T09:55:15.910Z,433.01
2023-03-29T09:56:15.889Z,430.77
2023-03-29T09:57:15.871Z,432.45
2023-03-29T09:58:15.876Z,425.82
2023-03-29T09:59:15.813Z,428.55
2023-03-29T10:00:15.830Z,427.18
2023-03-29T10:01:16.035Z,424.73
2023-03-29T10:02:15.790Z,430.49
2023-03-29T10:03:15.805Z,425.55
2023-03-29T10:04:15.786Z,423.12
2023-03-29T10:05:15.965Z,422.31
2023-03-29T10:06:15.764Z,418.60
2023-03-29T10:07:17.610Z,419.92
2023-03-29T10:08:19.634Z,419.65
2023-03-29T10:09:16.308Z,421.51
2023-03-29T10:10:17.730Z,418.86
2023-03-29T10:11:16.220Z,420.71
2023-03-29T10:12:15.752Z,420.98
2023-03-29T10:13:15.949Z,418.86
2023-03-29T10:14:15.794Z,417.03
2023-03-29T10:15:26.720Z,413.92
2023-03-29T10:16:16.623Z,415.99
2023-03-29T10:17:15.644Z,413.41
2023-03-29T10:18:15.677Z,414.95
2023-03-29T10:19:16.099Z,413.67
2023-03-29T10:20:19.156Z,413.92
2023-03-29T10:21:19.685Z,415.47
2023-03-29T10:22:16.006Z,410.36
2023-03-29T10:23:17.301Z,411.37
2023-03-29T10:24:21.239Z,411.88
2023-03-29T10:25:17.305Z,412.39
2023-03-29T10:26:18.997Z,410.61
2023-03-29T10:27:17.016Z,415.99
2023-03-29T10:28:17.976Z,415.47
2023-03-29T10:29:18.850Z,415.21
2023-03-29T10:31:56.886Z,456.42
2023-03-29T10:32:51.997Z,447.54
2023-03-29T10:33:49.362Z,439.57
2023-03-29T10:34:51.133Z,433.29
2023-03-29T10:35:49.225Z,433.29
2023-03-29T10:36:46.582Z,434.70
2023-03-29T10:37:46.430Z,431.89
2023-03-29T10:38:47.657Z,429.66
2023-03-29T10:39:47.211Z,426.91
2023-03-29T10:40:46.505Z,422.58
2023-03-29T10:41:46.334Z,423.12
2023-03-29T10:42:46.511Z,419.65
2023-03-29T10:43:46.394Z,420.18
2023-03-29T10:44:46.459Z,423.12
2023-03-29T10:45:46.333Z,417.03
2023-03-29T10:46:46.294Z,418.08
2023-03-29T10:47:46.463Z,415.99
2023-03-29T10:48:46.268Z,413.15
2023-03-29T10:49:46.241Z,413.15
2023-03-29T10:50:46.281Z,412.39
2023-03-29T10:51:46.287Z,411.12
2023-03-29T10:52:46.272Z,411.62
2023-03-29T10:53:46.304Z,411.62
2023-03-29T10:54:46.241Z,412.64
2023-03-29T10:55:46.290Z,414.95
2023-03-29T10:56:46.248Z,413.41
2023-03-29T10:57:46.293Z,412.90
2023-03-29T10:58:46.161Z,414.95
2023-03-29T10:59:46.268Z,411.12
2023-03-29T11:00:46.165Z,413.15
2023-03-29T11:01:46.344Z,413.67
2023-03-29T11:02:46.150Z,413.15
2023-03-29T11:03:46.249Z,414.18
2023-03-29T11:04:46.083Z,420.18
2023-03-29T11:05:46.140Z,420.71
2023-03-29T11:06:46.353Z,423.92
2023-03-29T11:07:46.050Z,420.71
2023-03-29T11:08:46.029Z,419.92
2023-03-29T11:09:46.183Z,417.55
2023-03-29T11:10:46.006Z,419.65
2023-03-29T11:11:46.033Z,418.08
2023-03-29T11:12:46.060Z,421.78
2023-03-29T11:13:46.010Z,418.86
2023-03-29T11:14:45.965Z,421.25
2023-03-29T11:15:46.052Z,420.71
2023-03-29T11:16:45.975Z,423.39
2023-03-29T11:17:45.993Z,427.73
2023-03-29T11:18:46.154Z,431.61
2023-03-29T11:19:45.972Z,431.33
2023-03-29T11:20:45.944Z,433.29
2023-03-29T11:21:46.040Z,431.89
2023-03-29T11:22:45.934Z,435.55
2023-03-29T11:23:45.991Z,435.27
2023-03-29T11:24:45.910Z,433.85
2023-03-29T11:25:45.892Z,432.17
2023-03-29T11:26:45.886Z,433.57
2023-03-29T11:27:45.837Z,434.98
2023-03-29T11:28:45.844Z,434.98
2023-03-29T11:29:45.845Z,439.28
2023-03-29T11:30:45.848Z,440.44
2023-03-29T11:31:45.857Z,449.05
2023-03-29T11:32:45.911Z,445.45
2023-03-29T11:33:45.777Z,446.64
2023-03-29T11:34:45.791Z,449.05
2023-03-29T11:35:45.894Z,446.34
2023-03-29T11:36:45.721Z,450.87
2023-03-29T11:37:45.782Z,446.34
2023-03-29T11:38:46.087Z,446.94
2023-03-29T11:39:45.806Z,448.44
2023-03-29T11:40:45.710Z,449.05
2023-03-29T11:41:45.846Z,448.74
2023-03-29T11:42:45.711Z,451.48
2023-03-29T11:43:45.706Z,447.84
2023-03-29T11:44:46.532Z,447.54
2023-03-29T11:45:45.620Z,444.85
2023-03-29T11:46:45.681Z,450.26
2023-03-29T11:47:45.656Z,451.78
2023-03-29T11:48:45.599Z,448.74
2023-03-29T11:49:45.589Z,449.05
2023-03-29T11:50:45.610Z,447.54
2023-03-29T11:51:45.567Z,449.65
2023-03-29T11:52:45.554Z,444.26
2023-03-29T11:53:45.673Z,446.34
2023-03-29T11:54:45.524Z,444.55
2023-03-29T11:55:45.531Z,443.37
2023-03-29T11:56:45.631Z,443.37
2023-03-29T11:57:45.555Z,441.90
2023-03-29T11:58:45.545Z,444.26
2023-03-29T11:59:45.495Z,443.67
2023-03-29T12:00:45.481Z,445.74
2023-03-29T12:01:45.540Z,439.57
2023-03-29T12:02:45.657Z,443.08
2023-03-29T12:03:46.974Z,441.32
2023-03-29T12:04:45.492Z,445.74
2023-03-29T12:05:45.445Z,445.45
2023-03-29T12:06:45.493Z,443.08
2023-03-29T12:07:45.384Z,442.78
2023-03-29T12:08:46.759Z,447.84
2023-03-29T12:09:46.802Z,446.94
2023-03-29T12:10:46.164Z,446.64
2023-03-29T12:11:46.592Z,449.95
2023-03-29T12:12:45.339Z,450.87
2023-03-29T12:13:45.407Z,451.48
2023-03-29T12:14:45.355Z,450.87
2023-03-29T12:15:45.349Z,449.95
2023-03-29T12:16:45.336Z,448.44
2023-03-29T12:17:45.291Z,448.44
2023-03-29T12:18:45.280Z,450.26
2023-03-29T12:19:45.329Z,444.85
2023-03-29T12:20:45.248Z,443.37
2023-03-29T12:21:45.229Z,446.94
2023-03-29T12:22:45.238Z,446.64
2023-03-29T12:23:45.253Z,444.26
2023-03-29T12:24:45.287Z,440.73
2023-03-29T12:25:45.190Z,443.67
2023-03-29T12:26:45.216Z,442.78
2023-03-29T12:27:45.198Z,441.90
2023-03-29T12:28:45.163Z,437.27
2023-03-29T12:29:45.193Z,436.98
2023-03-29T12:30:45.197Z,440.73
2023-03-29T12:31:45.159Z,438.42
2023-03-29T12:32:45.153Z,436.69
2023-03-29T12:33:45.121Z,436.12
2023-03-29T12:34:45.087Z,433.29
2023-03-29T12:35:45.115Z,436.69
2023-03-29T12:36:45.070Z,435.84